Time;durP1;ratioP1;P1;durP2;ratioP2;P2;SDS_P1;SDS_P2;PMS_P1;PMS_P2;Temp;Humidity;BMP_temperature;BMP_pressure;BME280_temperature;BME280_humidity;BME280_pressure;Samples;Min_cycle;Max_cycle;Signal;HPM_P1;HPM_P2
2022/04/13 00:01:28;;;;;;;;;;;;;;;;;;5019839;28;20349;-23
2022/04/13 00:03:55;;;;;;;;;;;;;;;;;;5037382;28;19952;-23
2022/04/13 00:06:22;;;;;;;;;;;;;;;;;;5037322;28;19940;-23
2022/04/13 00:08:50;;;;;;;;;;;;;;;;;;5019915;28;19913;-23
2022/04/13 00:11:18;;;;;;;;;;;;;;;;;;5019920;28;20360;-23
2022/04/13 00:13:45;;;;;;;;;;;;;;;;;;5020245;28;19913;-23
2022/04/13 00:16:12;;;;;;;;;;;;;;;;;;5037335;28;19913;-23
2022/04/13 00:18:39;;;;;;;;;;;;;;;;;;5037194;28;20015;-23
2022/04/13 00:21:06;;;;;;;;;;;;;;;;;;5019686;28;20267;-22
2022/04/13 00:23:34;;;;;;;;;;;;;;;;;;5037088;28;19913;-23
2022/04/13 00:26:00;;;;;;;;;;;;;;;;;;5037302;28;19913;-23
2022/04/13 00:28:27;;;;;;;;;;;;;;;;;;5019488;28;20336;-23
2022/04/13 00:30:55;;;;;;;;;;;;;;;;;;5037006;28;19914;-22
2022/04/13 00:33:23;;;;;;;;;;;;;;;;;;5018995;28;19921;-23
2022/04/13 00:35:49;;;;;;;;;;;;;;;;;;5036859;28;19913;-22
2022/04/13 00:38:16;;;;;;;;;;;;;;;;;;5036967;28;20256;-23
2022/04/13 00:40:43;;;;;;;;;;;;;;;;;;5019257;28;19961;-22
2022/04/13 00:43:11;;;;;;;;;;;;;;;;;;5019157;28;20347;-23
2022/04/13 00:45:38;;;;;;;;;;;;;;;;;;5036868;28;19913;-22
2022/04/13 00:48:06;;;;;;;;;;;;;;;;;;5036705;28;20010;-23
2022/04/13 00:50:33;;;;;;;;;;;;;;;;;;5019126;28;20371;-22
2022/04/13 00:53:00;;;;;;;;;;;;;;;;;;5019084;28;19919;-23
2022/04/13 00:55:28;;;;;;;;;;;;;;;;;;5036561;28;19975;-23
2022/04/13 00:57:54;;;;;;;;;;;;;;;;;;5035446;28;20344;-23
2022/04/13 01:00:21;;;;;;;;;;;;;;;;;;5036743;28;19909;-23
2022/04/13 01:02:48;;;;;;;;;;;;;;;;;;5036378;28;19924;-23
2022/04/13 01:05:15;;;;;;;;;;;;;;;;;;5036627;28;20303;-22
2022/04/13 01:07:43;;;;;;;;;;;;;;;;;;5036290;28;19913;-23
2022/04/13 01:10:09;;;;;;;;;;;;;;;;;;5036243;28;20324;-23
2022/04/13 01:12:36;;;;;;;;;;;;;;;;;;5036120;28;19913;-23
2022/04/13 01:15:03;;;;;;;;;;;;;;;;;;5018991;28;19913;-23
2022/04/13 01:17:31;;;;;;;;;;;;;;;;;;5018629;28;20469;-23
2022/04/13 01:19:58;;;;;;;;;;;;;;;;;;5036364;28;19986;-22
2022/04/13 01:22:25;;;;;;;;;;;;;;;;;;5035860;28;19957;-22
2022/04/13 01:24:53;;;;;;;;;;;;;;;;;;5035912;28;19909;-22
2022/04/13 01:27:20;;;;;;;;;;;;;;;;;;5036111;28;20000;-22
2022/04/13 01:29:48;;;;;;;;;;;;;;;;;;5018417;28;19963;-22
2022/04/13 01:32:14;;;;;;;;;;;;;;;;;;5035712;28;20392;-22
2022/04/13 01:34:42;;;;;;;;;;;;;;;;;;5035648;28;19921;-22
2022/04/13 01:37:10;;;;;;;;;;;;;;;;;;5035652;28;19921;-22
2022/04/13 01:39:36;;;;;;;;;;;;;;;;;;5018150;28;20327;-22
2022/04/13 01:42:04;;;;;;;;;;;;;;;;;;5035826;28;19944;-22
2022/04/13 01:44:31;;;;;;;;;;;;;;;;;;5018154;28;19936;-22
2022/04/13 01:46:58;;;;;;;;;;;;;;;;;;5035877;28;19913;-22
2022/04/13 01:49:25;;;;;;;;;;;;;;;;;;5017920;28;20252;-22
2022/04/13 01:51:52;;;;;;;;;;;;;;;;;;5035325;28;19913;-22
2022/04/13 01:54:18;;;;;;;;;;;;;;;;;;5017869;28;19936;-22
2022/04/13 01:56:45;;;;;;;;;;;;;;;;;;5017793;28;19912;-22
2022/04/13 01:59:14;;;;;;;;;;;;;;;;;;5035547;28;19913;-22
2022/04/13 02:01:41;;;;;;;;;;;;;;;;;;5035195;28;19949;-22
2022/04/13 02:04:08;;;;;;;;;;;;;;;;;;5035194;28;19913;-22
2022/04/13 02:06:36;;;;;;;;;;;;;;;;;;5035469;28;19995;-22
2022/04/13 02:09:03;;;;;;;;;;;;;;;;;;5035090;28;19924;-22
2022/04/13 02:11:30;;;;;;;;;;;;;;;;;;5035042;28;19913;-22
2022/04/13 02:13:57;;;;;;;;;;;;;;;;;;5035329;28;19963;-25
2022/04/13 02:16:24;;;;;;;;;;;;;;;;;;5034919;28;19913;-25
2022/04/13 02:18:51;;;;;;;;;;;;;;;;;;5035073;28;19948;-24
2022/04/13 02:21:18;;;;;;;;;;;;;;;;;;5034967;28;19987;-25
2022/04/13 02:23:46;;;;;;;;;;;;;;;;;;5017442;28;19909;-25
2022/04/13 02:26:13;;;;;;;;;;;;;;;;;;5034802;28;20347;-25
2022/04/13 02:28:40;;;;;;;;;;;;;;;;;;5034979;28;19920;-24
2022/04/13 02:31:07;;;;;;;;;;;;;;;;;;5034974;28;20281;-25
2022/04/13 02:33:34;;;;;;;;;;;;;;;;;;5034382;28;19927;-25
2022/04/13 02:36:01;;;;;;;;;;;;;;;;;;5017442;28;19924;-25
2022/04/13 02:38:28;;;;;;;;;;;;;;;;;;5034802;28;20335;-25
2022/04/13 02:40:54;;;;;;;;;;;;;;;;;;5035050;28;19913;-25
2022/04/13 02:43:21;;;;;;;;;;;;;;;;;;5034698;28;19948;-25
2022/04/13 02:45:48;;;;;;;;;;;;;;;;;;5034741;28;19913;-25
2022/04/13 02:48:15;;;;;;;;;;;;;;;;;;5017270;28;19913;-25
2022/04/13 02:50:43;;;;;;;;;;;;;;;;;;5034692;28;20340;-25
2022/04/13 02:53:10;;;;;;;;;;;;;;;;;;5034609;28;19936;-25
2022/04/13 02:55:37;;;;;;;;;;;;;;;;;;5034712;28;19970;-25
2022/04/13 02:58:05;;;;;;;;;;;;;;;;;;5034604;28;20021;-25
2022/04/13 03:00:32;;;;;;;;;;;;;;;;;;5034881;28;20244;-25
2022/04/13 03:02:59;;;;;;;;;;;;;;;;;;5034502;28;19917;-25
2022/04/13 03:05:25;;;;;;;;;;;;;;;;;;5034814;28;19992;-25
2022/04/13 03:07:52;;;;;;;;;;;;;;;;;;5034564;28;20255;-25
2022/04/13 03:10:21;;;;;;;;;;;;;;;;;;5034471;28;20336;-25
2022/04/13 03:12:49;;;;;;;;;;;;;;;;;;5034379;28;19913;-25
2022/04/13 03:15:15;;;;;;;;;;;;;;;;;;5034495;28;19913;-25
2022/04/13 03:17:44;;;;;;;;;;;;;;;;;;5034656;28;20008;-25
2022/04/13 03:20:11;;;;;;;;;;;;;;;;;;5034478;28;19979;-25
2022/04/13 03:22:38;;;;;;;;;;;;;;;;;;5020465;28;20281;-25
2022/04/13 03:25:05;;;;;;;;;;;;;;;;;;5020830;28;19913;-25
2022/04/13 03:27:33;;;;;;;;;;;;;;;;;;5038307;28;19940;-25
2022/04/13 03:30:02;;;;;;;;;;;;;;;;;;5038191;28;19913;-25
2022/04/13 03:32:30;;;;;;;;;;;;;;;;;;5019142;28;19963;-25
2022/04/13 03:34:56;;;;;;;;;;;;;;;;;;5037469;28;19932;-25
2022/04/13 03:37:24;;;;;;;;;;;;;;;;;;5038187;28;19917;-25
2022/04/13 03:39:51;;;;;;;;;;;;;;;;;;5038023;28;19924;-25
2022/04/13 03:42:17;;;;;;;;;;;;;;;;;;5038107;28;20008;-25
2022/04/13 03:44:43;;;;;;;;;;;;;;;;;;5038179;28;20309;-25
2022/04/13 03:47:09;;;;;;;;;;;;;;;;;;5037841;28;20004;-25
2022/04/13 03:49:35;;;;;;;;;;;;;;;;;;5037984;28;19914;-25
2022/04/13 03:52:01;;;;;;;;;;;;;;;;;;5037631;28;19916;-25
2022/04/13 03:54:27;;;;;;;;;;;;;;;;;;5037897;28;19924;-25
2022/04/13 03:56:59;;;;;;;;;;;;;;;;;;5037814;28;19909;-25
2022/04/13 03:59:26;;;;;;;;;;;;;;;;;;5019866;28;19921;-25
2022/04/13 04:04:47;;;;;;;;;;;;;;;;;;5037383;28;19924;-25
2022/04/13 04:07:13;;;;;;;;;;;;;;;;;;5037302;28;19913;-25
2022/04/13 04:09:41;;;;;;;;;;;;;;;;;;5037288;28;20287;-25
2022/04/13 04:12:07;;;;;;;;;;;;;;;;;;5036985;28;20295;-25
2022/04/13 04:14:33;;;;;;;;;;;;;;;;;;5037147;28;19925;-25
2022/04/13 04:17:01;;;;;;;;;;;;;;;;;;5036858;28;19920;-25
2022/04/13 04:19:27;;;;;;;;;;;;;;;;;;5036799;28;19917;-27
2022/04/13 04:21:55;;;;;;;;;;;;;;;;;;5036655;28;19996;-25
2022/04/13 04:24:23;;;;;;;;;;;;;;;;;;5019059;28;19928;-24
2022/04/13 04:26:50;;;;;;;;;;;;;;;;;;5019212;28;19909;-25
2022/04/13 04:29:17;;;;;;;;;;;;;;;;;;5036704;28;19971;-24
2022/04/13 04:31:56;;;;;;;;;;;;;;;;;;5036035;28;20008;-24
2022/04/13 04:34:25;;;;;;;;;;;;;;;;;;5035418;28;19921;-25
2022/04/13 04:36:51;;;;;;;;;;;;;;;;;;5036514;28;19952;-24
2022/04/13 04:39:18;;;;;;;;;;;;;;;;;;5036306;28;20328;-25
2022/04/13 04:41:48;;;;;;;;;;;;;;;;;;5036416;28;19931;-24
2022/04/13 04:44:17;;;;;;;;;;;;;;;;;;5036126;28;19920;-24
2022/04/13 04:46:43;;;;;;;;;;;;;;;;;;5035932;28;20063;-24
2022/04/13 04:49:09;;;;;;;;;;;;;;;;;;5036053;28;19924;-25
2022/04/13 04:51:38;;;;;;;;;;;;;;;;;;5036581;28;19909;-25
2022/04/13 04:54:06;;;;;;;;;;;;;;;;;;5036220;28;19913;-24
2022/04/13 05:02:15;;;;;;;;;;;;;;;;;;5036387;28;19928;-25
2022/04/13 05:07:25;;;;;;;;;;;;;;;;;;5035642;28;19916;-24
2022/04/13 05:09:54;;;;;;;;;;;;;;;;;;5036357;28;19917;-24
2022/04/13 05:12:20;;;;;;;;;;;;;;;;;;5035736;28;20000;-25
2022/04/13 05:15:01;;;;;;;;;;;;;;;;;;5018399;28;19972;-25
2022/04/13 05:17:27;;;;;;;;;;;;;;;;;;5035563;28;19923;-24
2022/04/13 05:20:01;;;;;;;;;;;;;;;;;;5035666;28;19913;-25
2022/04/13 05:22:27;;;;;;;;;;;;;;;;;;5035830;28;19909;-25
2022/04/13 05:24:53;;;;;;;;;;;;;;;;;;5035674;28;20190;-25
2022/04/13 05:27:19;;;;;;;;;;;;;;;;;;5035919;28;20013;-25
2022/04/13 05:29:46;;;;;;;;;;;;;;;;;;5017603;28;19917;-25
2022/04/13 05:32:13;;;;;;;;;;;;;;;;;;5035339;28;20012;-25
2022/04/13 05:34:39;;;;;;;;;;;;;;;;;;5035003;28;19921;-25
2022/04/13 05:37:08;;;;;;;;;;;;;;;;;;5035056;28;19913;-25
2022/04/13 05:39:38;;;;;;;;;;;;;;;;;;5035337;28;19924;-26
2022/04/13 05:42:06;;;;;;;;;;;;;;;;;;5035337;28;20011;-26
2022/04/13 05:44:32;;;;;;;;;;;;;;;;;;5035115;28;19981;-25
2022/04/13 05:47:00;;;;;;;;;;;;;;;;;;5035111;28;19928;-26
2022/04/13 05:49:29;;;;;;;;;;;;;;;;;;5035241;28;20225;-26
2022/04/13 05:51:58;;;;;;;;;;;;;;;;;;5034829;28;20370;-26
2022/04/13 05:54:24;;;;;;;;;;;;;;;;;;5017460;28;19921;-26
2022/04/13 05:56:50;;;;;;;;;;;;;;;;;;5035012;28;19939;-23
2022/04/13 05:59:17;;;;;;;;;;;;;;;;;;5017215;28;19916;-23
2022/04/13 06:01:43;;;;;;;;;;;;;;;;;;5034629;28;19913;-24
2022/04/13 06:04:12;;;;;;;;;;;;;;;;;;5034581;28;19924;-24
2022/04/13 06:06:38;;;;;;;;;;;;;;;;;;5034529;28;19955;-23
2022/04/13 06:09:05;;;;;;;;;;;;;;;;;;5034410;28;19909;-24
2022/04/13 06:11:35;;;;;;;;;;;;;;;;;;5033839;28;19913;-24
2022/04/13 06:17:02;;;;;;;;;;;;;;;;;;5034029;28;20351;-25
2022/04/13 06:30:51;;;;;;;;;;;;;;;;;;5033759;28;19943;-25
2022/04/13 06:33:19;;;;;;;;;;;;;;;;;;5033441;28;20344;-24
2022/04/13 06:35:45;;;;;;;;;;;;;;;;;;5016788;28;19921;-25
2022/04/13 06:38:11;;;;;;;;;;;;;;;;;;5034185;28;19919;-25
2022/04/13 06:40:40;;;;;;;;;;;;;;;;;;5034022;28;19939;-25
2022/04/13 06:43:09;;;;;;;;;;;;;;;;;;5034093;28;19913;-25
2022/04/13 06:45:36;;;;;;;;;;;;;;;;;;5034478;28;20000;-26
2022/04/13 06:48:11;;;;;;;;;;;;;;;;;;5034116;28;19913;-25
2022/04/13 06:50:38;;;;;;;;;;;;;;;;;;5033993;28;19909;-25
2022/04/13 06:53:04;;;;;;;;;;;;;;;;;;5016192;28;19920;-25
2022/04/13 06:55:30;;;;;;;;;;;;;;;;;;5033331;28;19909;-25
2022/04/13 06:57:56;;;;;;;;;;;;;;;;;;5034163;28;20011;-25
2022/04/13 07:00:22;;;;;;;;;;;;;;;;;;5033941;28;19909;-25
2022/04/13 07:02:48;;;;;;;;;;;;;;;;;;5016142;28;19917;-25
2022/04/13 07:05:14;;;;;;;;;;;;;;;;;;5033900;28;20013;-25
2022/04/13 07:07:41;;;;;;;;;;;;;;;;;;5034210;28;19969;-25
2022/04/13 07:10:07;;;;;;;;;;;;;;;;;;5033891;28;20367;-25
2022/04/13 07:12:33;;;;;;;;;;;;;;;;;;5033582;28;19913;-25
2022/04/13 07:15:00;;;;;;;;;;;;;;;;;;5033665;28;19913;-25
2022/04/13 07:17:26;;;;;;;;;;;;;;;;;;5033597;28;20256;-25
2022/04/13 07:19:52;;;;;;;;;;;;;;;;;;5033802;28;20247;-25
2022/04/13 07:22:18;;;;;;;;;;;;;;;;;;5033481;28;20390;-25
2022/04/13 07:24:44;;;;;;;;;;;;;;;;;;5033321;28;19913;-25
2022/04/13 07:27:11;;;;;;;;;;;;;;;;;;5033422;28;19959;-25
2022/04/13 07:29:37;;;;;;;;;;;;;;;;;;5033702;28;19917;-25
2022/04/13 07:32:03;;;;;;;;;;;;;;;;;;5033318;28;20310;-24
2022/04/13 07:34:29;;;;;;;;;;;;;;;;;;5033365;28;19928;-25
2022/04/13 07:36:55;;;;;;;;;;;;;;;;;;5016270;28;19970;-25
2022/04/13 07:39:21;;;;;;;;;;;;;;;;;;5034184;28;19913;-26
2022/04/13 07:41:47;;;;;;;;;;;;;;;;;;5033856;28;19913;-25
2022/04/13 07:44:14;;;;;;;;;;;;;;;;;;5033798;28;20272;-25
2022/04/13 07:52:22;;;;;;;;;;;;;;;;;;5034019;28;19924;-25
2022/04/13 07:54:48;;;;;;;;;;;;;;;;;;5033799;28;19960;-25
2022/04/13 07:57:15;;;;;;;;;;;;;;;;;;5033661;28;19953;-25
2022/04/13 07:59:42;;;;;;;;;;;;;;;;;;5016187;28;20000;-25
2022/04/13 08:02:08;;;;;;;;;;;;;;;;;;5034012;28;19917;-25
2022/04/13 08:04:34;;;;;;;;;;;;;;;;;;5033710;28;19913;-24
2022/04/13 08:07:00;;;;;;;;;;;;;;;;;;5034445;28;20351;-25
2022/04/13 08:09:26;;;;;;;;;;;;;;;;;;5037369;28;19913;-25
2022/04/13 08:11:52;;;;;;;;;;;;;;;;;;5036909;28;19920;-25
2022/04/13 08:14:18;;;;;;;;;;;;;;;;;;5036964;28;19917;-25
2022/04/13 08:16:45;;;;;;;;;;;;;;;;;;5036818;28;19917;-25
2022/04/13 08:19:11;;;;;;;;;;;;;;;;;;5037060;28;20310;-25
2022/04/13 08:21:40;;;;;;;;;;;;;;;;;;5037053;28;19924;-25
2022/04/13 08:24:06;;;;;;;;;;;;;;;;;;5019304;28;20356;-25
2022/04/13 08:26:32;;;;;;;;;;;;;;;;;;5037276;28;19974;-25
2022/04/13 08:28:59;;;;;;;;;;;;;;;;;;5036824;28;19928;-25
2022/04/13 08:31:25;;;;;;;;;;;;;;;;;;5019286;28;19935;-31
2022/04/13 08:33:51;;;;;;;;;;;;;;;;;;5036740;28;19961;-25
2022/04/13 08:36:17;;;;;;;;;;;;;;;;;;5036774;28;19913;-25
2022/04/13 08:38:43;;;;;;;;;;;;;;;;;;5036851;28;19924;-23
2022/04/13 08:41:09;;;;;;;;;;;;;;;;;;5036061;28;19913;-24
2022/04/13 08:43:35;;;;;;;;;;;;;;;;;;5035964;28;19913;-24
2022/04/13 08:46:03;;;;;;;;;;;;;;;;;;5035647;28;20328;-23
2022/04/13 08:48:29;;;;;;;;;;;;;;;;;;5018122;28;19925;-23
2022/04/13 08:50:56;;;;;;;;;;;;;;;;;;5035683;28;19909;-23
2022/04/13 08:53:22;;;;;;;;;;;;;;;;;;5035474;28;19920;-23
2022/04/13 08:55:48;;;;;;;;;;;;;;;;;;5035540;28;19913;-23
2022/04/13 08:58:14;;;;;;;;;;;;;;;;;;5035407;28;20028;-23
2022/04/13 09:00:40;;;;;;;;;;;;;;;;;;5035546;28;19921;-23
2022/04/13 09:03:09;;;;;;;;;;;;;;;;;;5035338;28;20319;-23
2022/04/13 09:05:35;;;;;;;;;;;;;;;;;;5035552;28;19913;-23
2022/04/13 09:08:05;;;;;;;;;;;;;;;;;;5035265;28;19910;-23
2022/04/13 09:10:31;;;;;;;;;;;;;;;;;;5017711;28;20012;-23
2022/04/13 09:12:58;;;;;;;;;;;;;;;;;;5035359;28;20016;-24
2022/04/13 09:15:24;;;;;;;;;;;;;;;;;;5017636;28;20279;-24
2022/04/13 09:17:50;;;;;;;;;;;;;;;;;;5035380;28;19913;-24
2022/04/13 09:20:16;;;;;;;;;;;;;;;;;;5034549;28;19963;-24
2022/04/13 09:22:42;;;;;;;;;;;;;;;;;;5035480;28;19963;-24
2022/04/13 09:25:08;;;;;;;;;;;;;;;;;;5035697;28;19917;-24
2022/04/13 09:27:34;;;;;;;;;;;;;;;;;;5035641;28;19909;-24
2022/04/13 09:30:07;;;;;;;;;;;;;;;;;;5018312;28;19976;-24
2022/04/13 09:43:54;;;;;;;;;;;;;;;;;;4975599;28;19920;-24
2022/04/13 09:46:20;;;;;;;;;;;;;;;;;;4975061;28;20349;-24
2022/04/13 09:48:46;;;;;;;;;;;;;;;;;;4987707;28;20374;-24
2022/04/13 09:51:12;;;;;;;;;;;;;;;;;;5035585;28;19996;-24
2022/04/13 09:53:39;;;;;;;;;;;;;;;;;;5035305;28;19923;-24
2022/04/13 09:56:05;;;;;;;;;;;;;;;;;;5035546;28;20275;-24
2022/04/13 09:58:32;;;;;;;;;;;;;;;;;;5034949;28;20348;-24
2022/04/13 10:01:03;;;;;;;;;;;;;;;;;;5035242;28;19967;-24
2022/04/13 10:03:29;;;;;;;;;;;;;;;;;;5034906;28;19967;-24
2022/04/13 10:05:55;;;;;;;;;;;;;;;;;;5034894;28;19976;-24
2022/04/13 10:08:26;;;;;;;;;;;;;;;;;;5035342;28;20340;-24
2022/04/13 10:10:54;;;;;;;;;;;;;;;;;;5034860;28;19909;-24
2022/04/13 10:13:20;;;;;;;;;;;;;;;;;;5017000;28;19970;-24
2022/04/13 10:15:46;;;;;;;;;;;;;;;;;;5034864;28;20283;-24
2022/04/13 10:18:13;;;;;;;;;;;;;;;;;;5034675;28;20260;-24
2022/04/13 10:20:39;;;;;;;;;;;;;;;;;;5035066;28;19920;-24
2022/04/13 10:23:05;;;;;;;;;;;;;;;;;;5017487;28;19913;-24
2022/04/13 10:25:31;;;;;;;;;;;;;;;;;;5034634;28;19944;-24
2022/04/13 10:27:57;;;;;;;;;;;;;;;;;;5034720;28;19916;-24
2022/04/13 10:30:23;;;;;;;;;;;;;;;;;;5016068;28;19913;-24
2022/04/13 10:32:49;;;;;;;;;;;;;;;;;;5034165;28;19936;-24
2022/04/13 10:35:16;;;;;;;;;;;;;;;;;;5016941;28;20052;-24
2022/04/13 10:37:42;;;;;;;;;;;;;;;;;;5016649;28;19989;-24
2022/04/13 10:40:09;;;;;;;;;;;;;;;;;;5034485;28;19948;-24
2022/04/13 10:42:35;;;;;;;;;;;;;;;;;;5034206;28;19914;-24
2022/04/13 10:45:02;;;;;;;;;;;;;;;;;;5016940;28;20387;-24
2022/04/13 10:47:29;;;;;;;;;;;;;;;;;;5034405;28;20244;-24
2022/04/13 10:49:55;;;;;;;;;;;;;;;;;;5016658;28;20362;-23
2022/04/13 10:52:21;;;;;;;;;;;;;;;;;;5016533;28;20301;-25
2022/04/13 10:54:47;;;;;;;;;;;;;;;;;;5033911;28;19949;-24
2022/04/13 10:57:14;;;;;;;;;;;;;;;;;;5033672;28;19940;-24
2022/04/13 10:59:40;;;;;;;;;;;;;;;;;;5033631;28;20233;-24
2022/04/13 11:02:07;;;;;;;;;;;;;;;;;;5033475;28;19917;-24
2022/04/13 11:04:33;;;;;;;;;;;;;;;;;;5033756;28;20229;-24
2022/04/13 11:06:59;;;;;;;;;;;;;;;;;;5033598;28;20007;-24
2022/04/13 11:09:26;;;;;;;;;;;;;;;;;;5033621;28;19913;-24
2022/04/13 11:11:52;;;;;;;;;;;;;;;;;;5033523;28;20063;-24
2022/04/13 11:14:18;;;;;;;;;;;;;;;;;;5033337;28;20003;-24
2022/04/13 11:16:44;;;;;;;;;;;;;;;;;;5015656;28;19924;-24
2022/04/13 11:19:13;;;;;;;;;;;;;;;;;;5033310;28;19924;-24
2022/04/13 11:21:39;;;;;;;;;;;;;;;;;;5033825;28;20347;-24
2022/04/13 11:24:05;;;;;;;;;;;;;;;;;;5033636;28;19924;-24
2022/04/13 11:26:31;;;;;;;;;;;;;;;;;;5033982;28;19913;-24
2022/04/13 11:28:59;;;;;;;;;;;;;;;;;;5033768;28;19909;-24
2022/04/13 11:31:25;;;;;;;;;;;;;;;;;;5034043;28;19978;-24
2022/04/13 11:33:52;;;;;;;;;;;;;;;;;;5033406;28;19909;-24
2022/04/13 11:36:18;;;;;;;;;;;;;;;;;;5033766;28;19917;-25
2022/04/13 11:38:44;;;;;;;;;;;;;;;;;;5033695;28;19987;-24
2022/04/13 11:41:12;;;;;;;;;;;;;;;;;;5034199;28;19977;-24
2022/04/13 11:43:38;;;;;;;;;;;;;;;;;;5019560;28;20375;-24
2022/04/13 11:46:04;;;;;;;;;;;;;;;;;;5037680;28;19913;-24
2022/04/13 11:48:32;;;;;;;;;;;;;;;;;;5037743;28;20325;-24
2022/04/13 11:50:59;;;;;;;;;;;;;;;;;;5037729;28;19924;-24
2022/04/13 11:53:25;;;;;;;;;;;;;;;;;;5037561;28;19975;-24
2022/04/13 11:55:52;;;;;;;;;;;;;;;;;;5037186;28;20004;-24
2022/04/13 11:58:21;;;;;;;;;;;;;;;;;;5037164;28;20263;-24
2022/04/13 12:00:50;;;;;;;;;;;;;;;;;;5037184;28;20384;-24
2022/04/13 12:03:16;;;;;;;;;;;;;;;;;;5037326;28;20275;-24
2022/04/13 12:05:42;;;;;;;;;;;;;;;;;;5037088;28;19913;-24
2022/04/13 12:08:08;;;;;;;;;;;;;;;;;;5020124;28;19924;-24
2022/04/13 12:10:36;;;;;;;;;;;;;;;;;;5037002;28;20323;-25
2022/04/13 12:13:03;;;;;;;;;;;;;;;;;;5036795;28;19925;-25
2022/04/13 12:15:31;;;;;;;;;;;;;;;;;;5036960;28;20362;-25
2022/04/13 12:17:57;;;;;;;;;;;;;;;;;;5036975;28;19921;-25
2022/04/13 12:20:23;;;;;;;;;;;;;;;;;;5036882;28;20370;-29
2022/04/13 12:22:54;;;;;;;;;;;;;;;;;;5036689;28;19920;-25
2022/04/13 12:25:20;;;;;;;;;;;;;;;;;;5037094;28;19995;-26
2022/04/13 12:27:46;;;;;;;;;;;;;;;;;;5019225;28;19964;-24
2022/04/13 12:30:16;;;;;;;;;;;;;;;;;;5036708;28;19913;-24
2022/04/13 12:32:43;;;;;;;;;;;;;;;;;;5036899;28;19909;-24
2022/04/13 12:35:11;;;;;;;;;;;;;;;;;;5036270;28;19921;-24
2022/04/13 12:37:37;;;;;;;;;;;;;;;;;;5036738;28;19913;-24
2022/04/13 12:40:05;;;;;;;;;;;;;;;;;;5019074;28;20268;-25
2022/04/13 12:42:36;;;;;;;;;;;;;;;;;;5018664;28;19909;-24
2022/04/13 12:45:02;;;;;;;;;;;;;;;;;;5036471;28;19913;-24
2022/04/13 12:55:56;;;;;;;;;;;;;;;;;;5036390;28;20359;-25
2022/04/13 12:58:22;;;;;;;;;;;;;;;;;;5035903;28;19917;-25
2022/04/13 13:00:48;;;;;;;;;;;;;;;;;;5035932;28;20310;-25
2022/04/13 13:03:14;;;;;;;;;;;;;;;;;;5036043;28;19909;-25
2022/04/13 13:05:40;;;;;;;;;;;;;;;;;;5036180;28;20341;-25
2022/04/13 13:08:06;;;;;;;;;;;;;;;;;;5036535;28;19909;-25
2022/04/13 13:10:33;;;;;;;;;;;;;;;;;;5036531;28;19937;-24
2022/04/13 13:12:59;;;;;;;;;;;;;;;;;;5036010;28;19919;-24
2022/04/13 13:15:25;;;;;;;;;;;;;;;;;;5036035;28;20364;-24
2022/04/13 13:17:55;;;;;;;;;;;;;;;;;;5035849;28;19936;-24
2022/04/13 13:20:21;;;;;;;;;;;;;;;;;;5035447;28;19913;-25
2022/04/13 13:22:49;;;;;;;;;;;;;;;;;;5035444;28;19909;-25
2022/04/13 13:25:16;;;;;;;;;;;;;;;;;;5035195;28;19917;-25
2022/04/13 13:27:43;;;;;;;;;;;;;;;;;;5035797;28;19924;-25
2022/04/13 13:30:09;;;;;;;;;;;;;;;;;;5035755;28;19927;-25
2022/04/13 13:32:35;;;;;;;;;;;;;;;;;;5018037;28;19967;-25
2022/04/13 13:35:05;;;;;;;;;;;;;;;;;;5034617;28;20445;-25
2022/04/13 13:37:32;;;;;;;;;;;;;;;;;;5035398;28;19959;-25
2022/04/13 13:39:58;;;;;;;;;;;;;;;;;;5035537;28;19994;-25
2022/04/13 13:42:24;;;;;;;;;;;;;;;;;;5035383;28;19914;-25
2022/04/13 13:44:50;;;;;;;;;;;;;;;;;;5035351;28;20322;-25
2022/04/13 13:47:16;;;;;;;;;;;;;;;;;;5035428;28;20363;-25
2022/04/13 13:49:43;;;;;;;;;;;;;;;;;;5017892;28;19924;-25
2022/04/13 13:52:10;;;;;;;;;;;;;;;;;;5035367;28;20021;-25
2022/04/13 13:57:29;;;;;;;;;;;;;;;;;;5031632;28;20370;-25
2022/04/13 14:02:52;;;;;;;;;;;;;;;;;;5034842;28;20390;-24
2022/04/13 14:05:18;;;;;;;;;;;;;;;;;;5034498;28;19921;-25
2022/04/13 14:07:44;;;;;;;;;;;;;;;;;;5017431;28;19917;-24
2022/04/13 14:13:01;;;;;;;;;;;;;;;;;;5034590;28;19986;-25
2022/04/13 14:15:27;;;;;;;;;;;;;;;;;;5034701;28;19920;-25
2022/04/13 14:17:53;;;;;;;;;;;;;;;;;;5034874;28;19917;-25
2022/04/13 14:20:19;;;;;;;;;;;;;;;;;;5017633;28;20340;-25
2022/04/13 14:25:36;;;;;;;;;;;;;;;;;;5034714;28;20075;-26
2022/04/13 14:28:03;;;;;;;;;;;;;;;;;;5034263;28;19913;-26
2022/04/13 14:30:29;;;;;;;;;;;;;;;;;;5034374;28;20259;-26
2022/04/13 14:32:55;;;;;;;;;;;;;;;;;;5034367;28;19928;-25
2022/04/13 14:35:22;;;;;;;;;;;;;;;;;;5016428;28;19921;-26
2022/04/13 14:37:52;;;;;;;;;;;;;;;;;;5016647;28;20311;-26
2022/04/13 14:43:10;;;;;;;;;;;;;;;;;;5034281;28;19927;-25
2022/04/13 14:45:36;;;;;;;;;;;;;;;;;;5034165;28;19913;-24
2022/04/13 14:48:02;;;;;;;;;;;;;;;;;;5034513;28;20252;-25
2022/04/13 14:50:29;;;;;;;;;;;;;;;;;;5034323;28;19913;-25
2022/04/13 14:52:55;;;;;;;;;;;;;;;;;;5034331;28;19970;-25
2022/04/13 14:55:21;;;;;;;;;;;;;;;;;;5034511;28;19921;-25
2022/04/13 14:57:48;;;;;;;;;;;;;;;;;;5016692;28;20376;-25
2022/04/13 15:00:15;;;;;;;;;;;;;;;;;;5034213;28;20259;-25
2022/04/13 15:08:24;;;;;;;;;;;;;;;;;;5034195;28;19967;-25
2022/04/13 15:13:41;;;;;;;;;;;;;;;;;;5033048;28;20375;-25
2022/04/13 15:16:07;;;;;;;;;;;;;;;;;;5032884;28;19913;-25
2022/04/13 15:18:33;;;;;;;;;;;;;;;;;;5036390;28;19913;-25
2022/04/13 15:20:59;;;;;;;;;;;;;;;;;;5036934;28;19917;-25
2022/04/13 15:23:25;;;;;;;;;;;;;;;;;;5036831;28;19920;-25
2022/04/13 15:25:51;;;;;;;;;;;;;;;;;;5037134;28;19909;-25
2022/04/13 15:28:17;;;;;;;;;;;;;;;;;;5036820;28;20014;-25
2022/04/13 15:30:43;;;;;;;;;;;;;;;;;;5036728;28;20268;-25
2022/04/13 15:33:09;;;;;;;;;;;;;;;;;;5036643;28;19917;-25
2022/04/13 15:35:35;;;;;;;;;;;;;;;;;;5036521;28;19921;-25
2022/04/13 15:38:01;;;;;;;;;;;;;;;;;;5037104;28;19928;-25
2022/04/13 15:40:28;;;;;;;;;;;;;;;;;;5020246;28;19924;-25
2022/04/13 15:45:39;;;;;;;;;;;;;;;;;;5037428;28;20387;-25
2022/04/13 15:48:05;;;;;;;;;;;;;;;;;;5037240;28;19971;-24
2022/04/13 15:50:32;;;;;;;;;;;;;;;;;;5037550;28;19941;-25
2022/04/13 15:52:59;;;;;;;;;;;;;;;;;;5037285;28;19923;-25
2022/04/13 15:55:26;;;;;;;;;;;;;;;;;;5037412;28;19988;-25
2022/04/13 15:57:56;;;;;;;;;;;;;;;;;;5037359;28;19917;-24
2022/04/13 16:00:23;;;;;;;;;;;;;;;;;;5019922;28;19945;-24
2022/04/13 16:03:06;;;;;;;;;;;;;;;;;;5037207;28;19917;-25
2022/04/13 16:11:18;;;;;;;;;;;;;;;;;;5037155;28;19971;-25
2022/04/13 16:13:45;;;;;;;;;;;;;;;;;;5037161;28;20004;-24
2022/04/13 16:16:11;;;;;;;;;;;;;;;;;;5037198;28;19967;-25
2022/04/13 16:18:37;;;;;;;;;;;;;;;;;;5037019;28;19936;-24
2022/04/13 16:21:03;;;;;;;;;;;;;;;;;;5037157;28;19913;-25
2022/04/13 16:23:29;;;;;;;;;;;;;;;;;;5037131;28;19917;-24
2022/04/13 16:25:55;;;;;;;;;;;;;;;;;;5036929;28;19962;-24
2022/04/13 16:28:21;;;;;;;;;;;;;;;;;;5036860;28;19909;-24
2022/04/13 16:30:47;;;;;;;;;;;;;;;;;;5036454;28;19914;-24
2022/04/13 16:33:15;;;;;;;;;;;;;;;;;;5036361;28;19915;-24
2022/04/13 16:35:42;;;;;;;;;;;;;;;;;;5036559;28;19921;-24
2022/04/13 16:38:08;;;;;;;;;;;;;;;;;;5036774;28;19920;-24
2022/04/13 16:40:35;;;;;;;;;;;;;;;;;;5019092;28;19917;-24
2022/04/13 16:43:00;;;;;;;;;;;;;;;;;;5036369;28;19959;-24
2022/04/13 16:45:31;;;;;;;;;;;;;;;;;;5036459;28;19909;-24
2022/04/13 16:47:58;;;;;;;;;;;;;;;;;;5018874;28;20004;-24
2022/04/13 16:50:24;;;;;;;;;;;;;;;;;;5036475;28;19921;-25
2022/04/13 16:52:50;;;;;;;;;;;;;;;;;;5036182;28;19916;-25
2022/04/13 16:55:17;;;;;;;;;;;;;;;;;;5036398;28;19913;-24
2022/04/13 16:57:47;;;;;;;;;;;;;;;;;;5018474;28;20328;-23
2022/04/13 17:00:13;;;;;;;;;;;;;;;;;;5035984;28;20000;-23
2022/04/13 17:02:39;;;;;;;;;;;;;;;;;;5035651;28;20325;-23
2022/04/13 17:05:05;;;;;;;;;;;;;;;;;;5035944;28;19938;-23
2022/04/13 17:07:31;;;;;;;;;;;;;;;;;;5035820;28;20255;-24
2022/04/13 17:09:57;;;;;;;;;;;;;;;;;;5018208;28;19909;-25
2022/04/13 17:12:23;;;;;;;;;;;;;;;;;;5035551;28;19924;-24
2022/04/13 17:14:49;;;;;;;;;;;;;;;;;;5018725;28;19960;-24
2022/04/13 17:17:15;;;;;;;;;;;;;;;;;;5035532;28;19984;-24
2022/04/13 17:19:41;;;;;;;;;;;;;;;;;;5035470;28;20303;-24
2022/04/13 17:22:07;;;;;;;;;;;;;;;;;;5035696;28;19913;-24
2022/04/13 17:24:33;;;;;;;;;;;;;;;;;;5035857;28;19924;-24
2022/04/13 17:26:59;;;;;;;;;;;;;;;;;;5018164;28;19913;-24
2022/04/13 17:29:25;;;;;;;;;;;;;;;;;;5018063;28;20410;-24
2022/04/13 17:31:52;;;;;;;;;;;;;;;;;;5035671;28;20000;-24
2022/04/13 17:34:18;;;;;;;;;;;;;;;;;;5034918;28;20264;-24
2022/04/13 17:36:44;;;;;;;;;;;;;;;;;;5035684;28;19913;-24
2022/04/13 17:39:10;;;;;;;;;;;;;;;;;;5017293;28;19913;-24
2022/04/13 17:41:38;;;;;;;;;;;;;;;;;;5034386;28;19932;-25
2022/04/13 17:44:04;;;;;;;;;;;;;;;;;;5034575;28;19920;-25
2022/04/13 17:46:32;;;;;;;;;;;;;;;;;;5034432;28;19913;-24
2022/04/13 17:48:58;;;;;;;;;;;;;;;;;;5034746;28;19920;-25
2022/04/13 17:54:15;;;;;;;;;;;;;;;;;;5034348;28;19924;-26
2022/04/13 17:56:41;;;;;;;;;;;;;;;;;;5034144;28;19919;-25
2022/04/13 17:59:08;;;;;;;;;;;;;;;;;;5016560;28;19913;-25
2022/04/13 18:01:34;;;;;;;;;;;;;;;;;;5034064;28;19920;-25
2022/04/13 18:04:00;;;;;;;;;;;;;;;;;;5034040;28;19963;-24
2022/04/13 18:06:28;;;;;;;;;;;;;;;;;;5016602;28;20328;-25
2022/04/13 18:08:53;;;;;;;;;;;;;;;;;;5034148;28;19913;-25